sensor_id;sensor_type;location;lat;lon;timestamp;temperature;humidity
1377;DHT22;682;52.502;13.488;2023-03-16T00:00:21;2.10;1.00
1377;DHT22;682;52.502;13.488;2023-03-16T00:02:50;2.10;1.00
1377;DHT22;682;52.502;13.488;2023-03-16T00:05:17;2.00;1.00
1377;DHT22;682;52.502;13.488;2023-03-16T00:07:44;2.00;1.00
1377;DHT22;682;52.502;13.488;2023-03-16T00:10:12;2.00;1.00
1377;DHT22;682;52.502;13.488;2023-03-16T00:12:39;1.90;1.00
1377;DHT22;682;52.502;13.488;2023-03-16T00:15:08;1.90;1.00
1377;DHT22;682;52.502;13.488;2023-03-16T00:17:35;1.90;1.00
1377;DHT22;682;52.502;13.488;2023-03-16T00:20:17;2.00;1.00
1377;DHT22;682;52.502;13.488;2023-03-16T00:22:44;1.90;1.00
1377;DHT22;682;52.502;13.488;2023-03-16T00:25:12;1.90;1.00
1377;DHT22;682;52.502;13.488;2023-03-16T00:27:43;1.80;1.00
1377;DHT22;682;52.502;13.488;2023-03-16T00:30:11;1.80;1.00
1377;DHT22;682;52.502;13.488;2023-03-16T00:32:38;1.80;1.00
1377;DHT22;682;52.502;13.488;2023-03-16T00:35:08;1.80;1.00
1377;DHT22;682;52.502;13.488;2023-03-16T00:37:39;1.70;1.00
1377;DHT22;682;52.502;13.488;2023-03-16T00:40:09;1.70;1.00
1377;DHT22;682;52.502;13.488;2023-03-16T00:42:38;1.60;1.00
1377;DHT22;682;52.502;13.488;2023-03-16T00:45:07;1.50;1.00
1377;DHT22;682;52.502;13.488;2023-03-16T00:47:34;1.50;1.00
1377;DHT22;682;52.502;13.488;2023-03-16T00:50:02;1.40;1.00
1377;DHT22;682;52.502;13.488;2023-03-16T00:52:29;1.50;1.00
1377;DHT22;682;52.502;13.488;2023-03-16T00:54:57;1.50;1.00
1377;DHT22;682;52.502;13.488;2023-03-16T00:57:24;1.50;1.00
1377;DHT22;682;52.502;13.488;2023-03-16T00:59:52;1.50;1.00
1377;DHT22;682;52.502;13.488;2023-03-16T01:02:19;1.50;1.00
1377;DHT22;682;52.502;13.488;2023-03-16T01:04:48;1.50;1.00
1377;DHT22;682;52.502;13.488;2023-03-16T01:07:16;1.40;1.00
1377;DHT22;682;52.502;13.488;2023-03-16T01:09:43;1.40;1.00
1377;DHT22;682;52.502;13.488;2023-03-16T01:12:13;1.30;1.00
1377;DHT22;682;52.502;13.488;2023-03-16T01:14:41;1.40;1.00
1377;DHT22;682;52.502;13.488;2023-03-16T01:17:11;1.30;1.00
1377;DHT22;682;52.502;13.488;2023-03-16T01:19:39;1.30;1.00
1377;DHT22;682;52.502;13.488;2023-03-16T01:22:07;1.30;1.00
1377;DHT22;682;52.502;13.488;2023-03-16T01:24:37;1.20;1.00
1377;DHT22;682;52.502;13.488;2023-03-16T01:27:04;1.20;1.00
1377;DHT22;682;52.502;13.488;2023-03-16T01:29:33;1.20;1.00
1377;DHT22;682;52.502;13.488;2023-03-16T01:32:01;1.10;1.00
1377;DHT22;682;52.502;13.488;2023-03-16T01:34:32;1.10;1.00
1377;DHT22;682;52.502;13.488;2023-03-16T01:36:59;1.00;1.00
1377;DHT22;682;52.502;13.488;2023-03-16T01:39:26;0.90;1.00
1377;DHT22;682;52.502;13.488;2023-03-16T01:41:53;0.80;1.00
1377;DHT22;682;52.502;13.488;2023-03-16T01:44:22;0.80;1.00
1377;DHT22;682;52.502;13.488;2023-03-16T01:46:56;0.80;1.00
1377;DHT22;682;52.502;13.488;2023-03-16T01:49:24;0.70;1.00
1377;DHT22;682;52.502;13.488;2023-03-16T01:51:54;0.60;1.00
1377;DHT22;682;52.502;13.488;2023-03-16T01:54:25;0.70;1.00
1377;DHT22;682;52.502;13.488;2023-03-16T01:56:58;0.70;1.00
1377;DHT22;682;52.502;13.488;2023-03-16T01:59:29;0.70;1.00
1377;DHT22;682;52.502;13.488;2023-03-16T02:01:59;0.70;1.00
1377;DHT22;682;52.502;13.488;2023-03-16T02:04:35;0.80;1.00
1377;DHT22;682;52.502;13.488;2023-03-16T02:07:04;0.80;1.00
1377;DHT22;682;52.502;13.488;2023-03-16T02:09:34;0.80;1.00
1377;DHT22;682;52.502;13.488;2023-03-16T02:12:03;0.70;1.00
1377;DHT22;682;52.502;13.488;2023-03-16T02:14:30;0.80;1.00
1377;DHT22;682;52.502;13.488;2023-03-16T02:16:58;0.80;1.00
1377;DHT22;682;52.502;13.488;2023-03-16T02:19:34;0.80;1.00
1377;DHT22;682;52.502;13.488;2023-03-16T02:22:06;0.70;1.00
1377;DHT22;682;52.502;13.488;2023-03-16T02:24:35;0.80;1.00
1377;DHT22;682;52.502;13.488;2023-03-16T02:27:04;0.70;1.00
1377;DHT22;682;52.502;13.488;2023-03-16T02:30:05;0.70;1.00
1377;DHT22;682;52.502;13.488;2023-03-16T02:32:34;0.80;1.00
1377;DHT22;682;52.502;13.488;2023-03-16T02:35:02;0.80;1.00
1377;DHT22;682;52.502;13.488;2023-03-16T02:37:30;0.80;1.00
1377;DHT22;682;52.502;13.488;2023-03-16T02:39:59;0.80;1.00
1377;DHT22;682;52.502;13.488;2023-03-16T02:42:27;0.70;1.00
1377;DHT22;682;52.502;13.488;2023-03-16T02:44:56;0.70;1.00
1377;DHT22;682;52.502;13.488;2023-03-16T02:47:29;0.70;1.00
1377;DHT22;682;52.502;13.488;2023-03-16T02:49:59;0.60;1.00
1377;DHT22;682;52.502;13.488;2023-03-16T02:52:27;0.60;1.00
1377;DHT22;682;52.502;13.488;2023-03-16T02:54:53;0.60;1.00
1377;DHT22;682;52.502;13.488;2023-03-16T02:57:21;0.60;1.00
1377;DHT22;682;52.502;13.488;2023-03-16T02:59:48;0.60;1.00
1377;DHT22;682;52.502;13.488;2023-03-16T03:02:15;0.60;1.00
1377;DHT22;682;52.502;13.488;2023-03-16T03:04:43;0.50;1.00
1377;DHT22;682;52.502;13.488;2023-03-16T03:07:11;0.50;1.00
1377;DHT22;682;52.502;13.488;2023-03-16T03:09:38;0.50;1.00
1377;DHT22;682;52.502;13.488;2023-03-16T03:12:07;0.40;1.00
1377;DHT22;682;52.502;13.488;2023-03-16T03:14:35;0.30;1.00
1377;DHT22;682;52.502;13.488;2023-03-16T03:17:05;0.30;1.00
1377;DHT22;682;52.502;13.488;2023-03-16T03:19:32;0.30;1.00
1377;DHT22;682;52.502;13.488;2023-03-16T03:22:01;0.20;1.00
1377;DHT22;682;52.502;13.488;2023-03-16T03:24:31;0.30;1.00
1377;DHT22;682;52.502;13.488;2023-03-16T03:26:59;0.20;1.00
1377;DHT22;682;52.502;13.488;2023-03-16T03:29:30;0.10;1.00
1377;DHT22;682;52.502;13.488;2023-03-16T03:31:59;0.10;1.00
1377;DHT22;682;52.502;13.488;2023-03-16T03:34:26;0.10;1.00
1377;DHT22;682;52.502;13.488;2023-03-16T03:36:53;0.20;1.00
1377;DHT22;682;52.502;13.488;2023-03-16T03:39:22;0.20;1.00
1377;DHT22;682;52.502;13.488;2023-03-16T03:41:49;0.30;1.00
1377;DHT22;682;52.502;13.488;2023-03-16T03:44:19;0.30;1.00
1377;DHT22;682;52.502;13.488;2023-03-16T03:46:46;0.40;1.00
1377;DHT22;682;52.502;13.488;2023-03-16T03:49:13;0.40;1.00
1377;DHT22;682;52.502;13.488;2023-03-16T03:51:40;0.30;1.00
1377;DHT22;682;52.502;13.488;2023-03-16T03:54:07;0.30;1.00
1377;DHT22;682;52.502;13.488;2023-03-16T03:56:36;0.30;1.00
1377;DHT22;682;52.502;13.488;2023-03-16T03:59:03;0.20;1.00
1377;DHT22;682;52.502;13.488;2023-03-16T04:01:30;0.20;1.00
1377;DHT22;682;52.502;13.488;2023-03-16T04:03:57;0.20;1.00
1377;DHT22;682;52.502;13.488;2023-03-16T04:06:24;0.20;1.00
1377;DHT22;682;52.502;13.488;2023-03-16T04:08:50;0.20;1.00
1377;DHT22;682;52.502;13.488;2023-03-16T04:11:18;0.20;1.00
1377;DHT22;682;52.502;13.488;2023-03-16T04:13:49;0.20;1.00
1377;DHT22;682;52.502;13.488;2023-03-16T04:16:16;0.20;1.00
1377;DHT22;682;52.502;13.488;2023-03-16T04:18:43;0.30;1.00
1377;DHT22;682;52.502;13.488;2023-03-16T04:21:13;0.30;1.00
1377;DHT22;682;52.502;13.488;2023-03-16T04:23:41;0.30;1.00
1377;DHT22;682;52.502;13.488;2023-03-16T04:26:08;0.30;1.00
1377;DHT22;682;52.502;13.488;2023-03-16T04:28:35;0.20;1.00
1377;DHT22;682;52.502;13.488;2023-03-16T04:31:06;0.20;1.00
1377;DHT22;682;52.502;13.488;2023-03-16T04:33:34;0.10;1.00
1377;DHT22;682;52.502;13.488;2023-03-16T04:36:01;0.10;1.00
1377;DHT22;682;52.502;13.488;2023-03-16T04:38:32;0.10;1.00
1377;DHT22;682;52.502;13.488;2023-03-16T04:41:00;0.10;1.00
1377;DHT22;682;52.502;13.488;2023-03-16T04:43:27;0.10;1.00
1377;DHT22;682;52.502;13.488;2023-03-16T04:45:54;0.10;1.00
1377;DHT22;682;52.502;13.488;2023-03-16T04:48:22;0.10;1.00
1377;DHT22;682;52.502;13.488;2023-03-16T04:50:50;0.20;1.00
1377;DHT22;682;52.502;13.488;2023-03-16T04:53:17;0.10;1.00
1377;DHT22;682;52.502;13.488;2023-03-16T04:55:45;0.20;1.00
1377;DHT22;682;52.502;13.488;2023-03-16T04:58:12;0.20;1.00
1377;DHT22;682;52.502;13.488;2023-03-16T05:00:39;0.20;1.00
1377;DHT22;682;52.502;13.488;2023-03-16T05:03:10;0.20;1.00
1377;DHT22;682;52.502;13.488;2023-03-16T05:05:40;0.20;1.00
1377;DHT22;682;52.502;13.488;2023-03-16T05:08:07;0.20;1.00
1377;DHT22;682;52.502;13.488;2023-03-16T05:10:35;0.20;1.00
1377;DHT22;682;52.502;13.488;2023-03-16T05:13:03;0.10;1.00
1377;DHT22;682;52.502;13.488;2023-03-16T05:15:30;0.00;1.00
1377;DHT22;682;52.502;13.488;2023-03-16T05:17:58;0.00;1.00
1377;DHT22;682;52.502;13.488;2023-03-16T05:20:26;-0.10;1.00
1377;DHT22;682;52.502;13.488;2023-03-16T05:22:57;-0.10;1.00
1377;DHT22;682;52.502;13.488;2023-03-16T05:25:26;-0.10;1.00
1377;DHT22;682;52.502;13.488;2023-03-16T05:27:53;-0.10;1.00
1377;DHT22;682;52.502;13.488;2023-03-16T05:30:21;-0.20;1.00
1377;DHT22;682;52.502;13.488;2023-03-16T05:32:48;-0.20;1.00
1377;DHT22;682;52.502;13.488;2023-03-16T05:35:15;-0.20;1.00
1377;DHT22;682;52.502;13.488;2023-03-16T05:37:43;-0.10;1.00
1377;DHT22;682;52.502;13.488;2023-03-16T05:40:13;-0.20;1.00
1377;DHT22;682;52.502;13.488;2023-03-16T05:42:43;-0.10;1.00
1377;DHT22;682;52.502;13.488;2023-03-16T05:45:11;-0.10;1.00
1377;DHT22;682;52.502;13.488;2023-03-16T05:47:38;-0.20;1.00
1377;DHT22;682;52.502;13.488;2023-03-16T05:50:06;0.00;1.00
1377;DHT22;682;52.502;13.488;2023-03-16T05:52:36;0.10;1.00
1377;DHT22;682;52.502;13.488;2023-03-16T05:55:03;0.20;1.00
1377;DHT22;682;52.502;13.488;2023-03-16T05:57:32;0.20;1.00
1377;DHT22;682;52.502;13.488;2023-03-16T06:00:02;0.30;1.00
1377;DHT22;682;52.502;13.488;2023-03-16T06:02:36;0.40;1.00
1377;DHT22;682;52.502;13.488;2023-03-16T06:05:04;0.50;1.00
1377;DHT22;682;52.502;13.488;2023-03-16T06:07:32;0.50;1.00
1377;DHT22;682;52.502;13.488;2023-03-16T06:09:59;0.50;1.00
1377;DHT22;682;52.502;13.488;2023-03-16T06:12:26;0.50;1.00
1377;DHT22;682;52.502;13.488;2023-03-16T06:14:54;0.50;1.00
1377;DHT22;682;52.502;13.488;2023-03-16T06:17:21;0.50;1.00
1377;DHT22;682;52.502;13.488;2023-03-16T06:19:49;0.60;1.00
1377;DHT22;682;52.502;13.488;2023-03-16T06:22:16;0.70;1.00
1377;DHT22;682;52.502;13.488;2023-03-16T06:24:44;0.80;1.00
1377;DHT22;682;52.502;13.488;2023-03-16T06:27:11;0.90;1.00
1377;DHT22;682;52.502;13.488;2023-03-16T06:29:38;0.90;1.00
1377;DHT22;682;52.502;13.488;2023-03-16T06:32:07;1.10;1.00
1377;DHT22;682;52.502;13.488;2023-03-16T06:34:34;1.20;1.00
1377;DHT22;682;52.502;13.488;2023-03-16T06:37:02;1.30;1.00
1377;DHT22;682;52.502;13.488;2023-03-16T06:39:30;1.40;1.00
1377;DHT22;682;52.502;13.488;2023-03-16T06:41:57;1.50;1.00
1377;DHT22;682;52.502;13.488;2023-03-16T06:44:29;1.60;1.00
1377;DHT22;682;52.502;13.488;2023-03-16T06:46:56;1.80;1.00
1377;DHT22;682;52.502;13.488;2023-03-16T06:49:24;1.90;1.00
1377;DHT22;682;52.502;13.488;2023-03-16T06:51:51;1.90;1.00
1377;DHT22;682;52.502;13.488;2023-03-16T06:54:21;2.00;1.00
1377;DHT22;682;52.502;13.488;2023-03-16T06:56:48;2.10;1.00
1377;DHT22;682;52.502;13.488;2023-03-16T06:59:17;2.20;1.00
1377;DHT22;682;52.502;13.488;2023-03-16T07:01:44;2.30;1.00
1377;DHT22;682;52.502;13.488;2023-03-16T07:04:11;2.40;1.00
1377;DHT22;682;52.502;13.488;2023-03-16T07:06:39;2.50;1.00
1377;DHT22;682;52.502;13.488;2023-03-16T07:09:07;2.60;1.00
1377;DHT22;682;52.502;13.488;2023-03-16T07:11:35;2.70;1.00
1377;DHT22;682;52.502;13.488;2023-03-16T07:14:02;2.80;1.00
1377;DHT22;682;52.502;13.488;2023-03-16T07:16:29;3.00;1.00
1377;DHT22;682;52.502;13.488;2023-03-16T07:18:56;3.10;1.00
1377;DHT22;682;52.502;13.488;2023-03-16T07:21:26;3.20;1.00
1377;DHT22;682;52.502;13.488;2023-03-16T07:23:54;3.50;1.00
1377;DHT22;682;52.502;13.488;2023-03-16T07:26:22;3.70;1.00
1377;DHT22;682;52.502;13.488;2023-03-16T07:28:48;3.90;1.00
1377;DHT22;682;52.502;13.488;2023-03-16T07:31:16;3.90;1.00
1377;DHT22;682;52.502;13.488;2023-03-16T07:33:43;4.10;1.00
1377;DHT22;682;52.502;13.488;2023-03-16T07:36:17;4.10;1.00
1377;DHT22;682;52.502;13.488;2023-03-16T07:38:45;4.30;1.00
1377;DHT22;682;52.502;13.488;2023-03-16T07:41:13;4.40;1.00
1377;DHT22;682;52.502;13.488;2023-03-16T07:43:41;4.50;1.00
1377;DHT22;682;52.502;13.488;2023-03-16T07:46:11;4.70;1.00
1377;DHT22;682;52.502;13.488;2023-03-16T07:48:43;4.70;1.00
1377;DHT22;682;52.502;13.488;2023-03-16T07:51:11;4.90;1.00
1377;DHT22;682;52.502;13.488;2023-03-16T07:53:39;5.10;1.00
1377;DHT22;682;52.502;13.488;2023-03-16T07:56:08;5.20;1.00
1377;DHT22;682;52.502;13.488;2023-03-16T07:58:37;5.40;1.00
1377;DHT22;682;52.502;13.488;2023-03-16T08:01:05;5.50;1.00
1377;DHT22;682;52.502;13.488;2023-03-16T08:03:32;5.70;1.00
1377;DHT22;682;52.502;13.488;2023-03-16T08:05:59;5.80;1.00
1377;DHT22;682;52.502;13.488;2023-03-16T08:08:25;5.80;1.00
1377;DHT22;682;52.502;13.488;2023-03-16T08:10:52;6.00;1.00
1377;DHT22;682;52.502;13.488;2023-03-16T08:13:20;6.00;1.00
1377;DHT22;682;52.502;13.488;2023-03-16T08:15:50;6.10;1.00
1377;DHT22;682;52.502;13.488;2023-03-16T08:18:23;6.10;1.00
1377;DHT22;682;52.502;13.488;2023-03-16T08:20:50;6.20;1.00
1377;DHT22;682;52.502;13.488;2023-03-16T08:23:18;6.30;1.00
1377;DHT22;682;52.502;13.488;2023-03-16T08:25:53;6.40;1.00
1377;DHT22;682;52.502;13.488;2023-03-16T08:28:22;6.50;1.00
1377;DHT22;682;52.502;13.488;2023-03-16T08:30:52;6.60;1.00
1377;DHT22;682;52.502;13.488;2023-03-16T08:33:19;6.70;1.00
1377;DHT22;682;52.502;13.488;2023-03-16T08:35:47;6.80;1.00
1377;DHT22;682;52.502;13.488;2023-03-16T08:38:14;6.90;1.00
1377;DHT22;682;52.502;13.488;2023-03-16T08:40:41;7.00;1.00
1377;DHT22;682;52.502;13.488;2023-03-16T08:43:13;7.00;1.00
1377;DHT22;682;52.502;13.488;2023-03-16T08:45:40;7.10;1.00
1377;DHT22;682;52.502;13.488;2023-03-16T08:48:08;7.20;1.00
1377;DHT22;682;52.502;13.488;2023-03-16T08:50:39;7.30;1.00
1377;DHT22;682;52.502;13.488;2023-03-16T08:53:06;7.40;1.00
1377;DHT22;682;52.502;13.488;2023-03-16T08:55:33;7.40;1.00
1377;DHT22;682;52.502;13.488;2023-03-16T08:58:01;7.60;1.00
1377;DHT22;682;52.502;13.488;2023-03-16T09:00:28;7.70;1.00
1377;DHT22;682;52.502;13.488;2023-03-16T09:02:55;7.90;1.00
1377;DHT22;682;52.502;13.488;2023-03-16T09:05:24;8.00;1.00
1377;DHT22;682;52.502;13.488;2023-03-16T09:07:51;8.20;1.00
1377;DHT22;682;52.502;13.488;2023-03-16T09:10:19;8.30;1.00
1377;DHT22;682;52.502;13.488;2023-03-16T09:12:48;8.50;1.00
1377;DHT22;682;52.502;13.488;2023-03-16T09:15:17;8.70;1.00
1377;DHT22;682;52.502;13.488;2023-03-16T09:17:45;9.00;1.00
1377;DHT22;682;52.502;13.488;2023-03-16T09:20:14;9.50;1.00
1377;DHT22;682;52.502;13.488;2023-03-16T09:22:42;10.60;1.00
1377;DHT22;682;52.502;13.488;2023-03-16T09:25:12;12.40;1.00
1377;DHT22;682;52.502;13.488;2023-03-16T09:27:40;14.30;1.00
1377;DHT22;682;52.502;13.488;2023-03-16T09:30:08;15.70;1.00
1377;DHT22;682;52.502;13.488;2023-03-16T09:32:35;16.90;1.00
1377;DHT22;682;52.502;13.488;2023-03-16T09:35:03;17.10;1.00
1377;DHT22;682;52.502;13.488;2023-03-16T09:37:31;17.50;1.00
1377;DHT22;682;52.502;13.488;2023-03-16T09:40:00;17.70;1.00
1377;DHT22;682;52.502;13.488;2023-03-16T09:42:32;18.30;1.00
1377;DHT22;682;52.502;13.488;2023-03-16T09:45:08;19.20;1.00
1377;DHT22;682;52.502;13.488;2023-03-16T09:47:39;20.00;1.00
1377;DHT22;682;52.502;13.488;2023-03-16T09:50:14;20.50;1.00
1377;DHT22;682;52.502;13.488;2023-03-16T09:52:52;20.10;1.00
1377;DHT22;682;52.502;13.488;2023-03-16T09:55:28;20.40;1.00
1377;DHT22;682;52.502;13.488;2023-03-16T09:57:57;19.60;1.00
1377;DHT22;682;52.502;13.488;2023-03-16T10:00:29;20.00;1.00
1377;DHT22;682;52.502;13.488;2023-03-16T10:03:16;20.30;1.00
1377;DHT22;682;52.502;13.488;2023-03-16T10:05:54;20.60;1.00
1377;DHT22;682;52.502;13.488;2023-03-16T10:08:23;21.00;1.00
1377;DHT22;682;52.502;13.488;2023-03-16T10:11:27;21.40;1.00
1377;DHT22;682;52.502;13.488;2023-03-16T10:13:59;21.80;1.00
1377;DHT22;682;52.502;13.488;2023-03-16T10:16:33;22.40;1.00
1377;DHT22;682;52.502;13.488;2023-03-16T10:19:08;22.00;1.00
1377;DHT22;682;52.502;13.488;2023-03-16T10:21:38;21.90;1.00
1377;DHT22;682;52.502;13.488;2023-03-16T10:24:14;21.20;1.00
1377;DHT22;682;52.502;13.488;2023-03-16T10:26:48;21.70;1.00
1377;DHT22;682;52.502;13.488;2023-03-16T10:29:16;22.70;1.00
1377;DHT22;682;52.502;13.488;2023-03-16T10:31:43;22.50;1.00
1377;DHT22;682;52.502;13.488;2023-03-16T10:34:10;22.20;1.00
1377;DHT22;682;52.502;13.488;2023-03-16T10:36:40;22.30;1.00
1377;DHT22;682;52.502;13.488;2023-03-16T10:39:11;23.00;1.00
1377;DHT22;682;52.502;13.488;2023-03-16T10:41:41;23.10;1.00
1377;DHT22;682;52.502;13.488;2023-03-16T10:44:11;23.60;1.00
1377;DHT22;682;52.502;13.488;2023-03-16T10:46:40;24.00;1.00
1377;DHT22;682;52.502;13.488;2023-03-16T10:49:22;23.90;1.00
1377;DHT22;682;52.502;13.488;2023-03-16T10:51:52;23.90;1.00
1377;DHT22;682;52.502;13.488;2023-03-16T10:54:27;24.40;1.00
1377;DHT22;682;52.502;13.488;2023-03-16T10:56:57;25.00;1.00
1377;DHT22;682;52.502;13.488;2023-03-16T10:59:30;24.20;1.00
1377;DHT22;682;52.502;13.488;2023-03-16T11:02:14;23.50;1.00
1377;DHT22;682;52.502;13.488;2023-03-16T11:04:41;24.30;1.00
1377;DHT22;682;52.502;13.488;2023-03-16T11:07:15;25.10;1.00
1377;DHT22;682;52.502;13.488;2023-03-16T11:09:44;25.40;1.00
1377;DHT22;682;52.502;13.488;2023-03-16T11:12:12;26.00;1.00
1377;DHT22;682;52.502;13.488;2023-03-16T11:14:43;26.10;1.00
1377;DHT22;682;52.502;13.488;2023-03-16T11:17:14;26.30;1.00
1377;DHT22;682;52.502;13.488;2023-03-16T11:19:50;26.60;1.00
1377;DHT22;682;52.502;13.488;2023-03-16T11:22:21;26.50;1.00
1377;DHT22;682;52.502;13.488;2023-03-16T11:24:51;27.30;1.00
1377;DHT22;682;52.502;13.488;2023-03-16T11:27:23;27.90;1.00
1377;DHT22;682;52.502;13.488;2023-03-16T11:30:05;27.40;1.00
1377;DHT22;682;52.502;13.488;2023-03-16T11:32:37;27.00;1.00
1377;DHT22;682;52.502;13.488;2023-03-16T11:35:12;26.50;1.00
1377;DHT22;682;52.502;13.488;2023-03-16T11:37:55;26.60;1.00
1377;DHT22;682;52.502;13.488;2023-03-16T11:40:37;26.20;1.00
1377;DHT22;682;52.502;13.488;2023-03-16T11:43:19;26.30;1.00
1377;DHT22;682;52.502;13.488;2023-03-16T11:46:05;26.70;1.00
1377;DHT22;682;52.502;13.488;2023-03-16T11:48:36;25.10;1.00
1377;DHT22;682;52.502;13.488;2023-03-16T11:51:12;23.60;1.00
1377;DHT22;682;52.502;13.488;2023-03-16T11:53:50;23.20;1.00
1377;DHT22;682;52.502;13.488;2023-03-16T11:56:29;23.90;1.00
1377;DHT22;682;52.502;13.488;2023-03-16T12:02:19;24.90;1.00
1377;DHT22;682;52.502;13.488;2023-03-16T12:04:57;25.30;1.00
1377;DHT22;682;52.502;13.488;2023-03-16T12:07:45;24.80;1.00
1377;DHT22;682;52.502;13.488;2023-03-16T12:10:21;25.70;1.00
1377;DHT22;682;52.502;13.488;2023-03-16T12:13:07;24.00;1.00
1377;DHT22;682;52.502;13.488;2023-03-16T12:15:41;24.60;1.00
1377;DHT22;682;52.502;13.488;2023-03-16T12:18:14;25.30;1.00
1377;DHT22;682;52.502;13.488;2023-03-16T12:20:51;24.80;1.00
1377;DHT22;682;52.502;13.488;2023-03-16T12:23:22;24.80;1.00
1377;DHT22;682;52.502;13.488;2023-03-16T12:25:51;25.10;1.00
1377;DHT22;682;52.502;13.488;2023-03-16T12:28:23;25.80;1.00
1377;DHT22;682;52.502;13.488;2023-03-16T12:30:59;26.60;1.00
1377;DHT22;682;52.502;13.488;2023-03-16T12:33:39;27.20;1.00
1377;DHT22;682;52.502;13.488;2023-03-16T12:36:37;28.10;1.00
1377;DHT22;682;52.502;13.488;2023-03-16T12:39:12;29.20;1.00
1377;DHT22;682;52.502;13.488;2023-03-16T12:41:51;27.70;1.00
1377;DHT22;682;52.502;13.488;2023-03-16T12:44:25;25.70;1.00
1377;DHT22;682;52.502;13.488;2023-03-16T12:47:00;25.90;1.00
1377;DHT22;682;52.502;13.488;2023-03-16T12:49:33;27.20;1.00
1377;DHT22;682;52.502;13.488;2023-03-16T12:52:05;28.10;1.00
1377;DHT22;682;52.502;13.488;2023-03-16T12:54:33;27.00;1.00
1377;DHT22;682;52.502;13.488;2023-03-16T12:57:02;26.60;1.00
1377;DHT22;682;52.502;13.488;2023-03-16T12:59:38;26.60;1.00
1377;DHT22;682;52.502;13.488;2023-03-16T13:02:13;26.90;1.00
1377;DHT22;682;52.502;13.488;2023-03-16T13:04:45;26.80;1.00
1377;DHT22;682;52.502;13.488;2023-03-16T13:07:17;25.30;1.00
1377;DHT22;682;52.502;13.488;2023-03-16T13:09:48;24.90;1.00
1377;DHT22;682;52.502;13.488;2023-03-16T13:12:24;24.10;1.00
1377;DHT22;682;52.502;13.488;2023-03-16T13:14:52;23.30;1.00
1377;DHT22;682;52.502;13.488;2023-03-16T13:17:29;22.40;1.00
1377;DHT22;682;52.502;13.488;2023-03-16T13:20:25;22.10;1.00
1377;DHT22;682;52.502;13.488;2023-03-16T13:23:18;23.00;1.00
1377;DHT22;682;52.502;13.488;2023-03-16T13:26:00;23.50;1.00
1377;DHT22;682;52.502;13.488;2023-03-16T13:28:31;22.60;1.00
1377;DHT22;682;52.502;13.488;2023-03-16T13:30:59;22.50;1.00
1377;DHT22;682;52.502;13.488;2023-03-16T13:33:30;21.60;1.00
1377;DHT22;682;52.502;13.488;2023-03-16T13:36:03;21.80;1.00
1377;DHT22;682;52.502;13.488;2023-03-16T13:38:31;21.30;1.00
1377;DHT22;682;52.502;13.488;2023-03-16T13:41:03;19.30;1.00
1377;DHT22;682;52.502;13.488;2023-03-16T13:43:32;18.00;1.00
1377;DHT22;682;52.502;13.488;2023-03-16T13:46:12;16.30;1.00
1377;DHT22;682;52.502;13.488;2023-03-16T13:48:40;15.00;1.00
1377;DHT22;682;52.502;13.488;2023-03-16T13:51:13;14.30;1.00
1377;DHT22;682;52.502;13.488;2023-03-16T13:53:46;13.90;1.00
1377;DHT22;682;52.502;13.488;2023-03-16T13:56:16;13.40;1.00
1377;DHT22;682;52.502;13.488;2023-03-16T13:58:46;12.90;1.00
1377;DHT22;682;52.502;13.488;2023-03-16T14:01:20;12.60;1.00
1377;DHT22;682;52.502;13.488;2023-03-16T14:03:49;12.50;1.00
1377;DHT22;682;52.502;13.488;2023-03-16T14:06:22;12.40;1.00
1377;DHT22;682;52.502;13.488;2023-03-16T14:08:53;12.20;1.00
1377;DHT22;682;52.502;13.488;2023-03-16T14:11:22;12.10;1.00
1377;DHT22;682;52.502;13.488;2023-03-16T14:13:50;12.10;1.00
1377;DHT22;682;52.502;13.488;2023-03-16T14:16:21;12.10;1.00
1377;DHT22;682;52.502;13.488;2023-03-16T14:18:54;12.00;1.00
1377;DHT22;682;52.502;13.488;2023-03-16T14:21:26;11.90;1.00
1377;DHT22;682;52.502;13.488;2023-03-16T14:23:57;11.80;1.00
1377;DHT22;682;52.502;13.488;2023-03-16T14:26:25;11.80;1.00
1377;DHT22;682;52.502;13.488;2023-03-16T14:29:00;11.80;1.00
1377;DHT22;682;52.502;13.488;2023-03-16T14:31:34;11.70;1.00
1377;DHT22;682;52.502;13.488;2023-03-16T14:34:04;11.60;1.00
1377;DHT22;682;52.502;13.488;2023-03-16T14:36:36;11.50;1.00
1377;DHT22;682;52.502;13.488;2023-03-16T14:39:11;11.50;1.00
1377;DHT22;682;52.502;13.488;2023-03-16T14:41:38;11.50;1.00
1377;DHT22;682;52.502;13.488;2023-03-16T14:44:16;11.40;1.00
1377;DHT22;682;52.502;13.488;2023-03-16T14:46:44;11.30;1.00
1377;DHT22;682;52.502;13.488;2023-03-16T14:49:18;11.20;1.00
1377;DHT22;682;52.502;13.488;2023-03-16T14:51:49;11.10;1.00
1377;DHT22;682;52.502;13.488;2023-03-16T14:54:19;11.00;1.00
1377;DHT22;682;52.502;13.488;2023-03-16T14:56:47;10.80;1.00
1377;DHT22;682;52.502;13.488;2023-03-16T14:59:16;10.80;1.00
1377;DHT22;682;52.502;13.488;2023-03-16T15:01:46;10.80;1.00
1377;DHT22;682;52.502;13.488;2023-03-16T15:04:16;10.80;1.00
1377;DHT22;682;52.502;13.488;2023-03-16T15:06:44;10.80;1.00
1377;DHT22;682;52.502;13.488;2023-03-16T15:09:27;10.80;1.00
1377;DHT22;682;52.502;13.488;2023-03-16T15:11:56;10.80;1.00
1377;DHT22;682;52.502;13.488;2023-03-16T15:14:22;10.80;1.00
1377;DHT22;682;52.502;13.488;2023-03-16T15:17:03;10.80;1.00
1377;DHT22;682;52.502;13.488;2023-03-16T15:19:30;10.70;1.00
1377;DHT22;682;52.502;13.488;2023-03-16T15:21:59;10.70;1.00
1377;DHT22;682;52.502;13.488;2023-03-16T15:24:28;10.60;1.00
1377;DHT22;682;52.502;13.488;2023-03-16T15:26:57;10.50;1.00
1377;DHT22;682;52.502;13.488;2023-03-16T15:29:27;10.40;1.00
1377;DHT22;682;52.502;13.488;2023-03-16T15:31:56;10.30;1.00
1377;DHT22;682;52.502;13.488;2023-03-16T15:34:23;10.40;1.00
1377;DHT22;682;52.502;13.488;2023-03-16T15:36:52;10.40;1.00
1377;DHT22;682;52.502;13.488;2023-03-16T15:39:23;10.30;1.00
1377;DHT22;682;52.502;13.488;2023-03-16T15:41:52;10.20;1.00
1377;DHT22;682;52.502;13.488;2023-03-16T15:44:20;10.10;1.00
1377;DHT22;682;52.502;13.488;2023-03-16T15:46:47;10.10;1.00
1377;DHT22;682;52.502;13.488;2023-03-16T15:49:15;10.10;1.00
1377;DHT22;682;52.502;13.488;2023-03-16T15:51:42;10.00;1.00
1377;DHT22;682;52.502;13.488;2023-03-16T15:54:11;10.00;1.00
1377;DHT22;682;52.502;13.488;2023-03-16T15:56:40;9.90;1.00
1377;DHT22;682;52.502;13.488;2023-03-16T15:59:15;9.90;1.00
1377;DHT22;682;52.502;13.488;2023-03-16T16:01:45;9.80;1.00
1377;DHT22;682;52.502;13.488;2023-03-16T16:04:14;9.80;1.00
1377;DHT22;682;52.502;13.488;2023-03-16T16:06:42;9.60;1.00
1377;DHT22;682;52.502;13.488;2023-03-16T16:09:09;9.60;1.00
1377;DHT22;682;52.502;13.488;2023-03-16T16:11:37;9.40;1.00
1377;DHT22;682;52.502;13.488;2023-03-16T16:14:04;9.30;1.00
1377;DHT22;682;52.502;13.488;2023-03-16T16:16:33;9.20;1.00
1377;DHT22;682;52.502;13.488;2023-03-16T16:19:01;9.20;1.00
1377;DHT22;682;52.502;13.488;2023-03-16T16:21:28;9.10;1.00
1377;DHT22;682;52.502;13.488;2023-03-16T16:23:57;9.10;1.00
1377;DHT22;682;52.502;13.488;2023-03-16T16:26:27;9.00;1.00
1377;DHT22;682;52.502;13.488;2023-03-16T16:28:56;9.00;1.00
1377;DHT22;682;52.502;13.488;2023-03-16T16:31:24;8.90;1.00
1377;DHT22;682;52.502;13.488;2023-03-16T16:33:55;8.80;1.00
1377;DHT22;682;52.502;13.488;2023-03-16T16:36:23;8.80;1.00
1377;DHT22;682;52.502;13.488;2023-03-16T16:38:52;8.80;1.00
1377;DHT22;682;52.502;13.488;2023-03-16T16:41:24;8.80;1.00
1377;DHT22;682;52.502;13.488;2023-03-16T16:43:53;8.80;1.00
1377;DHT22;682;52.502;13.488;2023-03-16T16:46:22;8.70;1.00
1377;DHT22;682;52.502;13.488;2023-03-16T16:48:51;8.70;1.00